メインページ
METAR-TAF:

METAR-TAF

空港 :

フェアバンクス, アラスカ州, アメリカ合衆国

フェアバンクス国際空港

緯度: 64-48-14N, 経度: 147-52-34W, 海抜: 132m

現時点の気象観測

当レポートは24分前の22:53(UTC)に作成
西/南西の風 4kt
気温 13°C
湿度 26%
気圧 1017 hPa
視程: 16.1km
高度7000ftの雲は散在している
高度14000ftの千切れ雲あり

METAR: PAFA 272253Z 25004KT 10SM SCT070 BKN140 13/M06 A3003 RMK AO2 SLP176 T01331061

時間: 15:17 (23:17 UTC)

予報

当レポートは5時間39分前の17:38(UTC)に作成
予報は27日の 18時(UTC)から 28日の 24時(UTC)まで有効
変向風 4kt
視程: 10km
高度7000ftの千切れ雲あり
高度15000ftの千切れ雲あり
近辺でにわか雨

TAF: PAFA 271738Z 2718/2824 VRB04KT P6SM VCSH BKN070 BKN150

4,000以上の空港の気象観測と天気予報(METAR報とTAF報)

利用可能な観測所は地図上に黄色い丸と赤い丸で示す。

丸の上にカーソルを重ねると観測所名を参照できる。

次にクリックすると気象観測と天気予報を参照できる。

マップの切り替え:黒色「×」印の緑ボタンをクリックして拡大、「-」印の緑ボタンをクリックして縮小、緑色の三角印をクリックして隣りの地図に切り替え


METAR-TAF: